Time;durP1;ratioP1;P1;durP2;ratioP2;P2;SDS_P1;SDS_P2;PMS_P1;PMS_P2;Temp;Humidity;BMP_temperature;BMP_pressure;BME280_temperature;BME280_humidity;BME280_pressure;Samples;Min_cycle;Max_cycle;Signal;HPM_P1;HPM_P2
2022/04/23 00:01:54;;;;;;;;;;;;;;;14.79;55.22;98396.75;4483953;31;34172;-68
2022/04/23 00:04:22;;;;;;;;;;;;;;;14.77;55.61;98396.94;4489188;31;34397;-69
2022/04/23 00:06:51;;;;;;;;;;;;;;;14.56;56.43;98399.34;4492506;31;33466;-68
2022/04/23 00:09:19;;;;;;;;;;;;;;;14.72;55.66;98403.84;4487089;31;33602;-70
2022/04/23 00:11:47;;;;;;;;;;;;;;;15.08;54.59;98399.66;4499190;31;34293;-69
2022/04/23 00:14:17;;;;;;;;;;;;;;;15.18;54.22;98401.28;4491050;31;34402;-70
2022/04/23 00:16:45;;;;;;;;;;;;;;;15.02;54.72;98407.59;4490988;31;35290;-70
2022/04/23 00:19:14;;;;;;;;;;;;;;;15.23;54.49;98402.44;4483250;31;33760;-70
2022/04/23 00:21:42;;;;;;;;;;;;;;;15.22;54.29;98405.31;4490221;31;35062;-69
2022/04/23 00:24:10;;;;;;;;;;;;;;;15.38;53.81;98402.53;4494635;31;34341;-67
2022/04/23 00:26:40;;;;;;;;;;;;;;;15.49;53.67;98409.38;4490932;31;35603;-69
2022/04/23 00:29:08;;;;;;;;;;;;;;;15.59;53.26;98407.28;4479990;31;32118;-69
2022/04/23 00:31:36;;;;;;;;;;;;;;;15.45;53.71;98405.34;4468219;31;34183;-68
2022/04/23 00:34:05;;;;;;;;;;;;;;;15.57;53.33;98404.75;4490354;31;35359;-70
2022/04/23 00:36:33;;;;;;;;;;;;;;;15.65;53.07;98403.84;4492060;31;34247;-69
2022/04/23 00:39:01;;;;;;;;;;;;;;;15.69;53.37;98404.38;4487740;31;34428;-68
2022/04/23 00:41:45;;;;;;;;;;;;;;;15.46;53.55;98404.31;4495232;31;34146;-70
2022/04/23 00:44:13;;;;;;;;;;;;;;;15.37;54.09;98404.38;4487038;31;33110;-69
2022/04/23 00:46:42;;;;;;;;;;;;;;;15.68;53.13;98403.53;4485382;31;34945;-70
2022/04/23 00:49:10;;;;;;;;;;;;;;;15.66;53.11;98407.37;4493224;31;33455;-68
2022/04/23 00:51:39;;;;;;;;;;;;;;;15.47;52.88;98414.91;4485522;32;33808;-69
2022/04/23 00:54:07;;;;;;;;;;;;;;;15.52;52.84;98409.00;4457806;32;35902;-68
2022/04/23 00:56:36;;;;;;;;;;;;;;;15.49;53.50;98407.50;4483806;32;34865;-69
2022/04/23 00:59:05;;;;;;;;;;;;;;;15.41;53.49;98421.06;4484030;31;34748;-69
2022/04/23 01:01:32;;;;;;;;;;;;;;;15.63;53.07;98413.13;4485421;31;33213;-67
2022/04/23 01:04:02;;;;;;;;;;;;;;;15.52;53.25;98411.72;4491304;31;34428;-70
2022/04/23 01:06:34;;;;;;;;;;;;;;;15.63;53.06;98421.22;4485233;31;34111;-69
2022/04/23 01:09:06;;;;;;;;;;;;;;;15.71;53.10;98416.66;4484471;31;34673;-70
2022/04/23 01:11:37;;;;;;;;;;;;;;;15.59;53.36;98412.66;4500655;31;33929;-70
2022/04/23 01:14:06;;;;;;;;;;;;;;;15.57;53.49;98415.56;4501422;31;35212;-67
2022/04/23 01:16:34;;;;;;;;;;;;;;;15.76;53.21;98410.72;4491163;31;32932;-69
2022/04/23 01:19:02;;;;;;;;;;;;;;;15.57;53.41;98415.56;4486116;31;34149;-68
2022/04/23 01:21:31;;;;;;;;;;;;;;;15.67;53.46;98411.81;4493860;31;33793;-69
2022/04/23 01:23:59;;;;;;;;;;;;;;;15.78;53.01;98414.91;4499338;31;35578;-70
2022/04/23 01:26:27;;;;;;;;;;;;;;;15.80;53.32;98420.16;4472055;31;32990;-70
2022/04/23 01:28:57;;;;;;;;;;;;;;;15.70;53.64;98415.00;4477733;32;33180;-67
2022/04/23 01:31:25;;;;;;;;;;;;;;;15.81;53.56;98417.25;4482181;31;34078;-68
2022/04/23 01:33:54;;;;;;;;;;;;;;;15.68;53.99;98421.56;4483609;32;33233;-70
2022/04/23 01:36:22;;;;;;;;;;;;;;;15.42;54.56;98413.81;4484656;32;35352;-70
2022/04/23 01:38:50;;;;;;;;;;;;;;;15.52;54.36;98415.25;4485141;31;32519;-69
2022/04/23 01:41:21;;;;;;;;;;;;;;;15.54;54.44;98415.06;4484414;31;34096;-68
2022/04/23 01:43:49;;;;;;;;;;;;;;;15.68;53.68;98417.00;4492385;31;33205;-70
2022/04/23 01:46:17;;;;;;;;;;;;;;;15.61;53.98;98416.88;4484326;32;33065;-68
2022/04/23 01:48:45;;;;;;;;;;;;;;;15.56;54.11;98419.25;4484384;31;33386;-68
2022/04/23 01:51:14;;;;;;;;;;;;;;;15.31;54.89;98410.50;4483846;32;32576;-68
2022/04/23 01:53:41;;;;;;;;;;;;;;;15.17;55.46;98423.87;4486669;31;33322;-67
2022/04/23 01:56:11;;;;;;;;;;;;;;;15.27;55.28;98424.50;4495448;31;33281;-67
2022/04/23 01:58:39;;;;;;;;;;;;;;;15.30;55.22;98419.56;4483522;31;33628;-68
2022/04/23 02:01:07;;;;;;;;;;;;;;;14.93;56.33;98424.81;4485442;32;34145;-69
2022/04/23 02:03:35;;;;;;;;;;;;;;;15.09;56.06;98432.84;4482783;31;33127;-68
2022/04/23 02:06:03;;;;;;;;;;;;;;;15.24;55.46;98431.06;4488278;31;35338;-68
2022/04/23 02:08:31;;;;;;;;;;;;;;;15.38;55.10;98430.31;4489045;31;33298;-70
2022/04/23 02:10:59;;;;;;;;;;;;;;;15.36;55.01;98439.59;4494023;31;31732;-70
2022/04/23 02:13:27;;;;;;;;;;;;;;;15.37;55.17;98435.88;4491485;31;35442;-69
2022/04/23 02:15:55;;;;;;;;;;;;;;;15.20;55.27;98426.22;4484395;31;33100;-70
2022/04/23 02:18:26;;;;;;;;;;;;;;;15.27;55.28;98435.25;4482805;31;32444;-68
2022/04/23 02:20:56;;;;;;;;;;;;;;;15.14;55.39;98433.97;4494102;31;32292;-69
2022/04/23 02:23:29;;;;;;;;;;;;;;;15.24;55.06;98428.38;4494006;31;34114;-69
2022/04/23 02:25:58;;;;;;;;;;;;;;;15.22;55.07;98429.59;4479929;32;33522;-68
2022/04/23 02:28:29;;;;;;;;;;;;;;;14.88;56.24;98426.19;4481013;31;33388;-68
2022/04/23 02:31:02;;;;;;;;;;;;;;;15.20;55.18;98435.12;4481964;31;35925;-69
2022/04/23 02:33:35;;;;;;;;;;;;;;;15.07;55.16;98434.88;4466802;31;33884;-69
2022/04/23 02:36:11;;;;;;;;;;;;;;;14.98;55.50;98436.75;4482389;31;34563;-69
2022/04/23 02:38:44;;;;;;;;;;;;;;;14.96;55.53;98441.50;4480232;31;33432;-68
2022/04/23 02:41:14;;;;;;;;;;;;;;;14.97;55.98;98442.31;4482350;31;34012;-67
2022/04/23 02:43:45;;;;;;;;;;;;;;;14.83;56.46;98441.16;4482192;31;34212;-67
2022/04/23 02:46:14;;;;;;;;;;;;;;;14.98;56.07;98438.59;4493751;31;33404;-68
2022/04/23 02:48:47;;;;;;;;;;;;;;;15.30;54.91;98445.69;4496106;31;32386;-67
2022/04/23 02:51:20;;;;;;;;;;;;;;;15.23;55.31;98445.56;4493007;31;34232;-68
2022/04/23 02:53:51;;;;;;;;;;;;;;;15.33;55.00;98448.03;4485478;31;35223;-67
2022/04/23 02:56:26;;;;;;;;;;;;;;;15.41;54.69;98445.31;4483370;31;34541;-67
2022/04/23 02:58:59;;;;;;;;;;;;;;;15.38;54.64;98443.81;4488031;31;33323;-68
2022/04/23 03:01:30;;;;;;;;;;;;;;;15.28;55.03;98442.31;4481965;31;33051;-67
2022/04/23 03:04:05;;;;;;;;;;;;;;;15.29;54.98;98441.34;4482307;31;33513;-67
2022/04/23 03:06:40;;;;;;;;;;;;;;;15.40;54.43;98450.88;4485746;31;33785;-68
2022/04/23 03:09:10;;;;;;;;;;;;;;;15.38;54.45;98449.19;4491774;31;33581;-67
2022/04/23 03:11:40;;;;;;;;;;;;;;;15.26;54.50;98445.22;4480278;31;33238;-68
2022/04/23 03:14:10;;;;;;;;;;;;;;;15.21;54.78;98442.19;4487417;31;35370;-67
2022/04/23 03:16:42;;;;;;;;;;;;;;;14.77;56.39;98445.41;4481710;31;34603;-69
2022/04/23 03:19:11;;;;;;;;;;;;;;;15.17;55.09;98448.13;4487957;31;33349;-69
2022/04/23 03:21:40;;;;;;;;;;;;;;;15.18;55.00;98445.25;4484034;31;32920;-68
2022/04/23 03:24:10;;;;;;;;;;;;;;;15.24;54.67;98446.41;4481217;31;34435;-68
2022/04/23 03:26:40;;;;;;;;;;;;;;;15.06;55.38;98446.66;4479657;31;33429;-67
2022/04/23 03:29:09;;;;;;;;;;;;;;;15.00;55.77;98453.59;4480675;31;33156;-68
2022/04/23 03:31:39;;;;;;;;;;;;;;;14.91;56.07;98444.69;4490140;31;34416;-67
2022/04/23 03:34:09;;;;;;;;;;;;;;;14.86;56.33;98454.28;4492915;31;34131;-70
2022/04/23 03:36:39;;;;;;;;;;;;;;;14.88;56.02;98457.66;4486540;31;34965;-68
2022/04/23 03:39:08;;;;;;;;;;;;;;;15.22;55.07;98461.94;4479061;31;33455;-69
2022/04/23 03:41:36;;;;;;;;;;;;;;;15.20;54.79;98463.94;4496135;31;35274;-68
2022/04/23 03:44:07;;;;;;;;;;;;;;;15.14;55.04;98468.19;4491217;31;34355;-67
2022/04/23 03:46:36;;;;;;;;;;;;;;;15.19;54.97;98479.28;4484001;31;33274;-69
2022/04/23 03:49:07;;;;;;;;;;;;;;;15.14;55.28;98477.09;4488498;31;32198;-69
2022/04/23 03:51:41;;;;;;;;;;;;;;;15.21;55.33;98481.78;4496060;31;33224;-67
2022/04/23 03:54:21;;;;;;;;;;;;;;;15.31;54.92;98472.50;4487982;31;33070;-70
2022/04/23 03:56:51;;;;;;;;;;;;;;;15.32;55.16;98478.72;4495045;31;34356;-68
2022/04/23 03:59:23;;;;;;;;;;;;;;;15.32;55.05;98482.25;4487484;31;33520;-70
2022/04/23 04:01:55;;;;;;;;;;;;;;;15.44;54.57;98479.16;4481060;32;34223;-69
2022/04/23 04:04:26;;;;;;;;;;;;;;;15.54;54.00;98479.78;4481454;31;34877;-72
2022/04/23 04:06:54;;;;;;;;;;;;;;;15.48;54.23;98486.72;4491371;31;34478;-69
2022/04/23 04:09:23;;;;;;;;;;;;;;;15.32;54.37;98479.56;4490010;31;32644;-71
2022/04/23 04:12:01;;;;;;;;;;;;;;;15.37;54.50;98482.53;4491323;31;34220;-68
2022/04/23 04:14:30;;;;;;;;;;;;;;;14.91;55.86;98486.97;4483715;31;34249;-67
2022/04/23 04:17:01;;;;;;;;;;;;;;;14.91;56.33;98487.78;4484043;32;34655;-68
2022/04/23 04:19:30;;;;;;;;;;;;;;;15.18;55.58;98482.13;4482714;31;32707;-68
2022/04/23 04:21:59;;;;;;;;;;;;;;;14.95;56.26;98490.97;4483679;32;33856;-67
2022/04/23 04:24:27;;;;;;;;;;;;;;;14.93;56.12;98489.47;4482093;31;35307;-67
2022/04/23 04:26:57;;;;;;;;;;;;;;;14.85;56.13;98495.72;4482968;31;33123;-67
2022/04/23 04:29:26;;;;;;;;;;;;;;;14.98;55.53;98501.41;4480667;31;34938;-66
2022/04/23 04:31:55;;;;;;;;;;;;;;;15.26;54.75;98496.44;4492073;31;34209;-67
2022/04/23 04:34:23;;;;;;;;;;;;;;;15.35;54.91;98498.06;4479605;31;34824;-66
2022/04/23 04:37:01;;;;;;;;;;;;;;;15.14;55.42;98500.50;4494013;31;33747;-67
2022/04/23 04:39:31;;;;;;;;;;;;;;;15.35;54.53;98498.06;4482433;31;32684;-68
2022/04/23 04:42:01;;;;;;;;;;;;;;;15.14;55.07;98498.66;4497792;31;33231;-66
2022/04/23 04:44:30;;;;;;;;;;;;;;;15.34;54.88;98506.31;4488054;31;35238;-66
2022/04/23 04:47:09;;;;;;;;;;;;;;;15.13;55.26;98502.38;4483123;31;35167;-69
2022/04/23 04:49:39;;;;;;;;;;;;;;;15.23;55.12;98504.03;4484431;31;32399;-66
2022/04/23 04:52:09;;;;;;;;;;;;;;;15.41;54.49;98503.75;4493834;31;33196;-67
2022/04/23 04:54:38;;;;;;;;;;;;;;;15.36;53.96;98502.44;4481572;31;34414;-66
2022/04/23 04:57:08;;;;;;;;;;;;;;;14.95;55.47;98499.06;4492158;31;33327;-67
2022/04/23 04:59:37;;;;;;;;;;;;;;;14.95;55.76;98500.91;4490292;31;32564;-66
2022/04/23 05:02:07;;;;;;;;;;;;;;;15.18;55.08;98504.53;4481093;31;33480;-66
2022/04/23 05:04:36;;;;;;;;;;;;;;;15.48;54.51;98504.78;4485638;31;34411;-67
2022/04/23 05:07:06;;;;;;;;;;;;;;;15.56;54.39;98502.84;4481830;31;33160;-67
2022/04/23 05:09:37;;;;;;;;;;;;;;;15.58;54.38;98503.53;4483349;31;33751;-66
2022/04/23 05:12:06;;;;;;;;;;;;;;;15.68;54.09;98499.78;4484727;31;34263;-67
2022/04/23 05:14:35;;;;;;;;;;;;;;;15.75;53.50;98506.16;4487525;31;33011;-65
2022/04/23 05:17:10;;;;;;;;;;;;;;;15.66;53.62;98504.47;4492558;31;33040;-66
2022/04/23 05:19:39;;;;;;;;;;;;;;;15.83;53.39;98511.50;4496401;31;33473;-68
2022/04/23 05:22:08;;;;;;;;;;;;;;;15.91;53.49;98513.31;4481606;31;33470;-68
2022/04/23 05:24:36;;;;;;;;;;;;;;;15.93;53.62;98522.91;4484942;31;33949;-68
2022/04/23 05:27:06;;;;;;;;;;;;;;;16.03;53.44;98523.50;4481709;31;33862;-70
2022/04/23 05:29:36;;;;;;;;;;;;;;;16.13;52.99;98519.75;4480619;31;31989;-68
2022/04/23 05:32:04;;;;;;;;;;;;;;;15.81;53.28;98519.78;4486434;31;33339;-68
2022/04/23 05:34:35;;;;;;;;;;;;;;;15.71;53.78;98524.56;4490892;31;34084;-68
2022/04/23 05:37:06;;;;;;;;;;;;;;;15.97;53.27;98531.47;4481859;31;34564;-67
2022/04/23 05:39:35;;;;;;;;;;;;;;;15.90;53.84;98528.66;4482618;32;33449;-68
2022/04/23 05:42:05;;;;;;;;;;;;;;;16.04;53.42;98525.19;4482476;31;34085;-68
2022/04/23 05:44:35;;;;;;;;;;;;;;;16.09;53.31;98529.22;4482450;32;34275;-67
2022/04/23 05:47:05;;;;;;;;;;;;;;;16.10;53.24;98525.50;4493384;31;33963;-68
2022/04/23 05:49:38;;;;;;;;;;;;;;;16.14;53.53;98532.22;4493944;31;33745;-70
2022/04/23 05:52:19;;;;;;;;;;;;;;;16.07;53.04;98534.78;4482979;31;33192;-68
2022/04/23 05:54:48;;;;;;;;;;;;;;;16.25;53.12;98542.59;4493200;31;34032;-68
2022/04/23 05:57:17;;;;;;;;;;;;;;;16.39;53.25;98539.09;4489439;31;33629;-71
2022/04/23 05:59:47;;;;;;;;;;;;;;;16.55;52.86;98532.72;4483727;31;32706;-67
2022/04/23 06:02:18;;;;;;;;;;;;;;;16.30;52.53;98538.31;4485199;31;33529;-68
2022/04/23 06:04:49;;;;;;;;;;;;;;;16.35;52.64;98535.09;4486203;31;34279;-67
2022/04/23 06:07:19;;;;;;;;;;;;;;;16.64;51.52;98547.84;4486399;31;34654;-67
2022/04/23 06:09:49;;;;;;;;;;;;;;;16.95;52.09;98546.88;4484315;31;34713;-69
2022/04/23 06:12:20;;;;;;;;;;;;;;;17.31;51.33;98552.44;4491003;31;33088;-67
2022/04/23 06:14:54;;;;;;;;;;;;;;;17.29;52.03;98551.75;4490720;31;32799;-66
2022/04/23 06:17:23;;;;;;;;;;;;;;;16.87;52.70;98553.22;4480819;31;33229;-67
2022/04/23 06:19:52;;;;;;;;;;;;;;;17.05;51.39;98555.59;4486625;31;32409;-68
2022/04/23 06:22:21;;;;;;;;;;;;;;;16.72;50.94;98557.72;4482868;31;33714;-67
2022/04/23 06:24:50;;;;;;;;;;;;;;;17.07;51.16;98558.09;4495882;31;34491;-67
2022/04/23 06:27:18;;;;;;;;;;;;;;;16.98;51.47;98571.72;4484760;31;34231;-70
2022/04/23 06:29:47;;;;;;;;;;;;;;;17.19;51.36;98580.94;4484168;31;33716;-67
2022/04/23 06:32:16;;;;;;;;;;;;;;;17.43;50.41;98579.81;4483272;31;32920;-67
2022/04/23 06:34:44;;;;;;;;;;;;;;;17.23;50.58;98582.25;4479548;31;34135;-68
2022/04/23 06:37:13;;;;;;;;;;;;;;;17.11;50.90;98594.53;4483176;31;34971;-68
2022/04/23 06:39:41;;;;;;;;;;;;;;;16.96;51.30;98592.66;4485067;31;33493;-68
2022/04/23 06:42:09;;;;;;;;;;;;;;;17.16;51.37;98594.84;4485055;31;34199;-70
2022/04/23 06:44:39;;;;;;;;;;;;;;;17.02;51.13;98598.37;4482060;32;34431;-68
2022/04/23 06:47:08;;;;;;;;;;;;;;;17.16;51.12;98597.53;4481863;32;35415;-67
2022/04/23 06:49:36;;;;;;;;;;;;;;;17.22;50.67;98603.06;4476207;31;34607;-67
2022/04/23 06:52:04;;;;;;;;;;;;;;;17.22;51.21;98602.22;4479461;31;33872;-67
2022/04/23 06:54:32;;;;;;;;;;;;;;;17.17;51.54;98602.78;4483006;31;33873;-66
2022/04/23 06:57:00;;;;;;;;;;;;;;;16.82;51.97;98615.09;4482901;31;33340;-67
2022/04/23 06:59:31;;;;;;;;;;;;;;;16.89;52.13;98607.09;4487664;31;32616;-68
2022/04/23 07:02:05;;;;;;;;;;;;;;;17.07;52.21;98614.87;4466355;31;34254;-70
2022/04/23 07:04:34;;;;;;;;;;;;;;;17.10;51.30;98609.09;4488210;31;34256;-68
2022/04/23 07:07:05;;;;;;;;;;;;;;;17.27;50.75;98613.31;4477009;32;34487;-70
2022/04/23 07:09:34;;;;;;;;;;;;;;;16.77;52.36;98622.91;4484284;31;32320;-68
2022/04/23 07:12:03;;;;;;;;;;;;;;;17.15;51.01;98620.22;4482478;31;32684;-67
2022/04/23 07:14:32;;;;;;;;;;;;;;;17.23;50.87;98626.34;4487890;31;34328;-70
2022/04/23 07:17:07;;;;;;;;;;;;;;;17.14;50.39;98632.03;4482022;31;35237;-68
2022/04/23 07:19:39;;;;;;;;;;;;;;;17.32;50.67;98626.28;4490639;31;32496;-68
2022/04/23 07:22:09;;;;;;;;;;;;;;;17.14;50.21;98626.63;4491570;31;33979;-69
2022/04/23 07:24:37;;;;;;;;;;;;;;;17.31;49.51;98628.16;4488680;31;33176;-68
2022/04/23 07:27:06;;;;;;;;;;;;;;;17.12;50.14;98628.69;4486873;31;34506;-68
2022/04/23 07:29:34;;;;;;;;;;;;;;;17.11;50.57;98635.09;4483653;31;33474;-70
2022/04/23 07:32:04;;;;;;;;;;;;;;;16.79;51.92;98634.38;4485389;31;34524;-69
2022/04/23 07:37:28;;;;;;;;;;;;;;;17.23;50.88;98639.03;4491890;31;34589;-69
2022/04/23 07:39:58;;;;;;;;;;;;;;;17.28;50.29;98644.75;4484189;31;32216;-69
2022/04/23 07:42:27;;;;;;;;;;;;;;;16.90;50.95;98644.75;4472510;31;36012;-69
2022/04/23 07:44:56;;;;;;;;;;;;;;;16.60;52.06;98651.06;4487573;31;35232;-68
2022/04/23 07:47:29;;;;;;;;;;;;;;;16.90;52.06;98647.44;4484728;31;35226;-70
2022/04/23 07:50:01;;;;;;;;;;;;;;;16.75;52.17;98647.38;4489569;31;33147;-70
2022/04/23 07:52:29;;;;;;;;;;;;;;;17.03;51.67;98651.41;4493552;31;35347;-69
2022/04/23 07:54:58;;;;;;;;;;;;;;;17.25;51.37;98653.22;4481739;31;35860;-69
2022/04/23 07:57:27;;;;;;;;;;;;;;;17.24;51.96;98665.06;4486680;31;35460;-69
2022/04/23 07:59:56;;;;;;;;;;;;;;;17.32;51.53;98664.12;4487604;31;32331;-69
2022/04/23 08:02:24;;;;;;;;;;;;;;;17.29;51.10;98664.50;4485445;31;33738;-69
2022/04/23 08:04:53;;;;;;;;;;;;;;;17.14;52.07;98669.88;4494182;31;34474;-70
2022/04/23 08:07:21;;;;;;;;;;;;;;;16.68;53.50;98672.59;4493749;31;35066;-69
2022/04/23 08:09:49;;;;;;;;;;;;;;;17.30;51.99;98671.59;4480918;31;34579;-69
2022/04/23 08:12:18;;;;;;;;;;;;;;;17.25;50.95;98672.16;4483433;32;33127;-68
2022/04/23 08:14:47;;;;;;;;;;;;;;;17.18;51.53;98673.91;4491037;31;34556;-70
2022/04/23 08:17:15;;;;;;;;;;;;;;;17.25;51.62;98674.03;4482878;32;35174;-70
2022/04/23 08:19:44;;;;;;;;;;;;;;;16.49;52.58;98677.44;4487506;31;33599;-70
2022/04/23 08:22:13;;;;;;;;;;;;;;;17.13;51.84;98668.22;4480864;31;32110;-70
2022/04/23 08:24:41;;;;;;;;;;;;;;;17.51;51.82;98670.88;4497575;31;33337;-69
2022/04/23 08:27:11;;;;;;;;;;;;;;;17.35;51.82;98677.31;4486996;31;33128;-68
2022/04/23 08:32:38;;;;;;;;;;;;;;;17.37;50.31;98678.81;4496058;31;34934;-67
2022/04/23 08:35:17;;;;;;;;;;;;;;;17.07;51.42;98675.16;4496546;31;34085;-69
2022/04/23 08:37:56;;;;;;;;;;;;;;;17.04;51.69;98672.84;4489024;31;33182;-68
2022/04/23 08:40:35;;;;;;;;;;;;;;;17.34;50.35;98667.50;4488158;31;32627;-68
2022/04/23 08:43:09;;;;;;;;;;;;;;;17.81;51.24;98675.28;4501649;31;34799;-70
2022/04/23 08:45:44;;;;;;;;;;;;;;;18.30;49.04;98673.88;4491674;31;33058;-68
2022/04/23 08:48:24;;;;;;;;;;;;;;;18.49;47.86;98672.38;4485918;32;34471;-69
2022/04/23 08:50:59;;;;;;;;;;;;;;;18.33;48.86;98668.91;4474622;31;33089;-70
2022/04/23 08:53:35;;;;;;;;;;;;;;;18.74;47.09;98676.44;4476714;32;34139;-70
2022/04/23 08:56:15;;;;;;;;;;;;;;;18.63;47.08;98675.06;4474486;31;33035;-69
2022/04/23 08:58:56;;;;;;;;;;;;;;;18.78;46.75;98682.31;4486343;31;33391;-69
2022/04/23 09:01:32;;;;;;;;;;;;;;;18.66;47.29;98683.84;4468356;32;32303;-68
2022/04/23 09:04:09;;;;;;;;;;;;;;;18.99;46.83;98700.47;4492593;31;32691;-69
2022/04/23 09:06:45;;;;;;;;;;;;;;;18.37;47.81;98700.00;4485320;31;32755;-69
2022/04/23 09:09:21;;;;;;;;;;;;;;;18.59;46.47;98690.03;4491672;31;33390;-69
2022/04/23 09:12:00;;;;;;;;;;;;;;;18.70;46.71;98699.53;4498201;31;33174;-70
2022/04/23 09:14:48;;;;;;;;;;;;;;;18.67;46.64;98704.50;4500920;31;33031;-72
2022/04/23 09:25:48;;;;;;;;;;;;;;;18.43;46.58;98711.09;4482919;31;33578;-70
2022/04/23 09:28:29;;;;;;;;;;;;;;;18.16;46.80;98716.16;4488775;31;34204;-70
2022/04/23 09:31:06;;;;;;;;;;;;;;;18.23;46.80;98718.97;4469218;31;34563;-70
2022/04/23 09:33:45;;;;;;;;;;;;;;;18.23;47.09;98722.50;4471557;31;34354;-70
2022/04/23 09:36:18;;;;;;;;;;;;;;;18.27;47.23;98710.28;4484888;31;32972;-69
2022/04/23 09:39:03;;;;;;;;;;;;;;;18.04;47.40;98714.97;4478108;31;32786;-69
2022/04/23 09:41:35;;;;;;;;;;;;;;;18.10;47.37;98712.34;4501311;31;33706;-70
2022/04/23 09:44:12;;;;;;;;;;;;;;;18.07;47.66;98722.72;4492735;31;34556;-68
2022/04/23 09:46:44;;;;;;;;;;;;;;;18.08;47.29;98724.41;4470214;32;34018;-70
2022/04/23 09:49:35;;;;;;;;;;;;;;;17.64;48.12;98725.19;4485133;31;33648;-71
2022/04/23 09:52:06;;;;;;;;;;;;;;;17.73;47.83;98728.66;4491802;31;33279;-70
2022/04/23 09:54:41;;;;;;;;;;;;;;;17.94;48.01;98723.38;4493703;31;33262;-68
2022/04/23 09:57:19;;;;;;;;;;;;;;;17.88;48.05;98727.69;4474174;31;33903;-68
2022/04/23 09:59:57;;;;;;;;;;;;;;;17.80;48.23;98730.47;4482828;31;34116;-70
2022/04/23 10:02:32;;;;;;;;;;;;;;;17.43;49.47;98731.31;4495903;31;34053;-71
2022/04/23 10:05:11;;;;;;;;;;;;;;;17.61;49.65;98733.69;4491174;31;33716;-70
2022/04/23 10:07:45;;;;;;;;;;;;;;;17.48;49.69;98730.75;4492624;31;34759;-70
2022/04/23 10:10:19;;;;;;;;;;;;;;;17.46;49.92;98731.81;4491110;31;33879;-68
2022/04/23 10:12:53;;;;;;;;;;;;;;;17.63;49.60;98737.06;4484604;31;33281;-68
2022/04/23 10:15:33;;;;;;;;;;;;;;;17.17;49.67;98740.69;4484235;31;33188;-68
2022/04/23 10:18:06;;;;;;;;;;;;;;;17.37;49.76;98743.72;4499308;31;37032;-69
2022/04/23 10:20:52;;;;;;;;;;;;;;;17.19;50.61;98754.84;4486727;31;33080;-68
2022/04/23 10:23:27;;;;;;;;;;;;;;;17.21;50.42;98754.66;4499739;31;33149;-68
2022/04/23 10:26:32;;;;;;;;;;;;;;;17.13;50.45;98749.31;4484130;31;32320;-68
2022/04/23 10:29:08;;;;;;;;;;;;;;;17.35;50.04;98750.31;4471840;31;33017;-69
2022/04/23 10:31:42;;;;;;;;;;;;;;;17.08;50.72;98747.16;4479726;31;34224;-69
2022/04/23 10:34:31;;;;;;;;;;;;;;;17.29;50.86;98745.63;4489000;31;33497;-69
2022/04/23 10:37:12;;;;;;;;;;;;;;;17.20;50.17;98745.69;4485136;31;34644;-69
2022/04/23 10:39:42;;;;;;;;;;;;;;;17.22;50.80;98746.38;4490418;31;33147;-68
2022/04/23 10:42:12;;;;;;;;;;;;;;;17.50;50.34;98747.66;4478375;31;35351;-68
2022/04/23 10:44:45;;;;;;;;;;;;;;;17.69;49.81;98747.12;4491137;31;34747;-69
2022/04/23 10:47:33;;;;;;;;;;;;;;;17.77;49.44;98747.06;4484366;31;34583;-69
2022/04/23 10:50:18;;;;;;;;;;;;;;;17.68;48.64;98761.66;4481982;31;35429;-68
2022/04/23 10:52:49;;;;;;;;;;;;;;;17.53;48.92;98758.97;4485538;31;31845;-67
2022/04/23 10:55:17;;;;;;;;;;;;;;;17.37;48.76;98768.06;4470403;31;33240;-69
2022/04/23 10:57:51;;;;;;;;;;;;;;;17.42;48.96;98770.19;4482500;31;32752;-69
2022/04/23 11:00:20;;;;;;;;;;;;;;;17.23;49.98;98763.41;4482630;31;34850;-68
2022/04/23 11:02:53;;;;;;;;;;;;;;;17.44;49.19;98776.28;4478009;31;35010;-68
2022/04/23 11:13:55;;;;;;;;;;;;;;;17.86;47.80;98761.38;4486126;31;34197;-68
2022/04/23 11:16:24;;;;;;;;;;;;;;;17.83;48.10;98765.28;4488952;31;35544;-67
2022/04/23 11:18:52;;;;;;;;;;;;;;;17.94;48.33;98769.38;4492013;31;33717;-67
2022/04/23 11:21:26;;;;;;;;;;;;;;;18.05;48.41;98762.69;4467117;31;33985;-69
2022/04/23 11:23:56;;;;;;;;;;;;;;;18.34;47.76;98765.38;4484651;31;34447;-69
2022/04/23 11:26:41;;;;;;;;;;;;;;;18.47;47.06;98767.41;4492321;31;34189;-70
2022/04/23 11:29:09;;;;;;;;;;;;;;;18.24;47.80;98772.13;4490441;31;33087;-68
2022/04/23 11:31:38;;;;;;;;;;;;;;;17.96;48.80;98772.75;4488852;31;33749;-68
2022/04/23 11:34:05;;;;;;;;;;;;;;;18.28;49.04;98771.53;4483482;31;34228;-68
2022/04/23 11:36:34;;;;;;;;;;;;;;;18.61;48.24;98773.84;4482115;31;34602;-68
2022/04/23 11:39:09;;;;;;;;;;;;;;;18.58;47.87;98771.50;4492183;31;33480;-68
2022/04/23 11:41:41;;;;;;;;;;;;;;;18.50;48.22;98772.47;4485391;31;34352;-68
2022/04/23 11:44:12;;;;;;;;;;;;;;;19.00;47.21;98767.22;4488387;31;34135;-69
2022/04/23 11:46:54;;;;;;;;;;;;;;;19.05;46.92;98770.19;4486540;31;34464;-69
2022/04/23 11:49:25;;;;;;;;;;;;;;;19.09;47.03;98771.50;4483260;31;33030;-69
2022/04/23 11:52:05;;;;;;;;;;;;;;;19.04;47.06;98779.38;4480745;31;34252;-67
2022/04/23 11:54:36;;;;;;;;;;;;;;;19.35;46.34;98783.63;4482928;31;33314;-67
2022/04/23 11:57:09;;;;;;;;;;;;;;;19.47;45.57;98785.62;4481879;31;33344;-68
2022/04/23 11:59:37;;;;;;;;;;;;;;;19.49;45.36;98782.72;4466964;31;32029;-69
2022/04/23 12:02:07;;;;;;;;;;;;;;;19.20;45.98;98779.13;4481399;31;33797;-69
2022/04/23 12:04:42;;;;;;;;;;;;;;;19.69;44.70;98770.19;4466386;31;33255;-68
2022/04/23 12:07:12;;;;;;;;;;;;;;;19.58;44.41;98780.69;4485568;31;33251;-68
2022/04/23 12:09:44;;;;;;;;;;;;;;;19.70;44.08;98773.75;4482857;31;33837;-69
2022/04/23 12:12:15;;;;;;;;;;;;;;;19.46;44.27;98775.81;4481324;31;32035;-67
2022/04/23 12:14:44;;;;;;;;;;;;;;;20.15;42.90;98763.38;4484006;31;34105;-69
2022/04/23 12:17:19;;;;;;;;;;;;;;;18.83;45.53;98763.91;4463393;31;34083;-68
2022/04/23 12:19:48;;;;;;;;;;;;;;;18.93;45.00;98769.03;4477129;32;33418;-67
2022/04/23 12:22:28;;;;;;;;;;;;;;;18.94;44.95;98759.84;4480212;31;34382;-67
2022/04/23 12:25:07;;;;;;;;;;;;;;;19.20;44.71;98762.00;4479037;31;34136;-68
2022/04/23 12:27:53;;;;;;;;;;;;;;;19.51;43.44;98754.34;4488576;31;35439;-69
2022/04/23 12:42:01;;;;;;;;;;;;;;;19.18;44.91;98743.22;4482014;31;34613;-68
2022/04/23 12:44:40;;;;;;;;;;;;;;;19.91;43.32;98743.81;4483606;31;33273;-68
2022/04/23 12:47:09;;;;;;;;;;;;;;;19.89;41.90;98745.88;4495731;31;33256;-70
2022/04/23 12:49:45;;;;;;;;;;;;;;;19.41;42.89;98748.41;4486909;31;33110;-68
2022/04/23 12:52:14;;;;;;;;;;;;;;;19.36;42.79;98748.19;4489485;31;33531;-70
2022/04/23 12:55:01;;;;;;;;;;;;;;;19.29;43.38;98745.41;4481322;31;34217;-68
2022/04/23 12:57:29;;;;;;;;;;;;;;;19.31;42.64;98756.88;4489910;31;35432;-69
2022/04/23 12:59:57;;;;;;;;;;;;;;;19.37;42.52;98763.41;4480999;32;34574;-68
2022/04/23 13:02:25;;;;;;;;;;;;;;;19.62;41.82;98760.28;4482176;31;33606;-69
2022/04/23 13:04:53;;;;;;;;;;;;;;;19.35;42.62;98754.62;4480622;32;33575;-69
2022/04/23 13:10:09;;;;;;;;;;;;;;;19.92;41.91;98759.06;4460061;31;35058;-70
2022/04/23 13:12:38;;;;;;;;;;;;;;;19.49;42.44;98755.59;4468337;31;34125;-67
2022/04/23 13:15:07;;;;;;;;;;;;;;;19.67;41.63;98753.25;4486529;31;34200;-68
2022/04/23 13:17:38;;;;;;;;;;;;;;;19.96;41.71;98754.06;4482149;31;34763;-68
2022/04/23 13:20:07;;;;;;;;;;;;;;;20.25;40.95;98755.72;4483412;31;34271;-71
2022/04/23 13:22:35;;;;;;;;;;;;;;;20.43;41.33;98753.31;4478849;31;32197;-68
2022/04/23 13:25:03;;;;;;;;;;;;;;;20.11;41.54;98754.81;4481029;31;35331;-67
2022/04/23 13:27:31;;;;;;;;;;;;;;;20.15;40.79;98744.37;4483832;31;34343;-69
2022/04/23 13:29:58;;;;;;;;;;;;;;;19.95;40.71;98747.81;4483625;31;34842;-69
2022/04/23 13:32:27;;;;;;;;;;;;;;;19.74;41.00;98743.31;4485788;31;32311;-68
2022/04/23 13:34:54;;;;;;;;;;;;;;;19.33;41.96;98745.03;4487832;31;34764;-67
2022/04/23 13:37:22;;;;;;;;;;;;;;;19.73;41.69;98747.03;4482161;31;35101;-69
2022/04/23 13:39:50;;;;;;;;;;;;;;;19.70;41.66;98754.72;4481977;31;34342;-69
2022/04/23 13:42:18;;;;;;;;;;;;;;;19.03;43.50;98758.69;4484488;31;32539;-67
2022/04/23 13:44:46;;;;;;;;;;;;;;;18.39;44.41;98762.09;4481148;31;33085;-68
2022/04/23 13:47:14;;;;;;;;;;;;;;;18.15;45.31;98753.25;4470695;31;33885;-68